sensor_id;sensor_type;location;lat;lon;timestamp;P1;durP1;ratioP1;P2;durP2;ratioP2
68168;SDS011;54981;50.206;15.978;2023-11-21T00:04:15;19.08;;;17.58;;
68168;SDS011;54981;50.206;15.978;2023-11-21T00:14:15;19.30;;;17.63;;
68168;SDS011;54981;50.206;15.978;2023-11-21T00:24:16;21.38;;;19.65;;
68168;SDS011;54981;50.206;15.978;2023-11-21T00:34:17;20.25;;;18.48;;
68168;SDS011;54981;50.206;15.978;2023-11-21T00:44:18;20.92;;;19.10;;
68168;SDS011;54981;50.206;15.978;2023-11-21T00:54:18;20.88;;;19.10;;
68168;SDS011;54981;50.206;15.978;2023-11-21T01:04:18;17.52;;;16.00;;
68168;SDS011;54981;50.206;15.978;2023-11-21T01:14:19;19.42;;;17.77;;
68168;SDS011;54981;50.206;15.978;2023-11-21T01:24:19;19.33;;;17.83;;
68168;SDS011;54981;50.206;15.978;2023-11-21T01:34:19;20.50;;;18.67;;
68168;SDS011;54981;50.206;15.978;2023-11-21T01:44:20;18.05;;;16.60;;
68168;SDS011;54981;50.206;15.978;2023-11-21T01:54:21;18.08;;;16.67;;
68168;SDS011;54981;50.206;15.978;2023-11-21T02:04:22;18.20;;;16.70;;
68168;SDS011;54981;50.206;15.978;2023-11-21T02:14:22;20.92;;;19.23;;
68168;SDS011;54981;50.206;15.978;2023-11-21T02:24:23;20.15;;;18.35;;
68168;SDS011;54981;50.206;15.978;2023-11-21T02:34:23;20.23;;;18.55;;
68168;SDS011;54981;50.206;15.978;2023-11-21T02:44:24;20.52;;;18.83;;
68168;SDS011;54981;50.206;15.978;2023-11-21T02:54:26;20.33;;;18.58;;
68168;SDS011;54981;50.206;15.978;2023-11-21T03:04:27;17.98;;;16.58;;
68168;SDS011;54981;50.206;15.978;2023-11-21T03:14:27;19.40;;;17.90;;
68168;SDS011;54981;50.206;15.978;2023-11-21T03:24:28;18.98;;;17.27;;
68168;SDS011;54981;50.206;15.978;2023-11-21T03:34:28;19.15;;;17.55;;
68168;SDS011;54981;50.206;15.978;2023-11-21T03:44:28;19.38;;;17.98;;
68168;SDS011;54981;50.206;15.978;2023-11-21T03:54:29;13.75;;;12.55;;
68168;SDS011;54981;50.206;15.978;2023-11-21T04:04:29;20.67;;;19.08;;
68168;SDS011;54981;50.206;15.978;2023-11-21T04:14:29;19.58;;;17.98;;
68168;SDS011;54981;50.206;15.978;2023-11-21T04:24:30;20.13;;;18.50;;
68168;SDS011;54981;50.206;15.978;2023-11-21T04:34:30;19.50;;;17.80;;
68168;SDS011;54981;50.206;15.978;2023-11-21T04:44:31;21.33;;;19.48;;
68168;SDS011;54981;50.206;15.978;2023-11-21T04:54:31;18.35;;;16.80;;
68168;SDS011;54981;50.206;15.978;2023-11-21T05:04:31;17.73;;;16.13;;
68168;SDS011;54981;50.206;15.978;2023-11-21T05:14:32;17.65;;;16.25;;
68168;SDS011;54981;50.206;15.978;2023-11-21T05:24:32;21.05;;;19.15;;
68168;SDS011;54981;50.206;15.978;2023-11-21T05:34:32;20.88;;;19.25;;
68168;SDS011;54981;50.206;15.978;2023-11-21T05:44:33;19.05;;;17.55;;
68168;SDS011;54981;50.206;15.978;2023-11-21T05:54:34;18.77;;;17.23;;
68168;SDS011;54981;50.206;15.978;2023-11-21T06:04:35;21.15;;;19.20;;
68168;SDS011;54981;50.206;15.978;2023-11-21T06:14:36;19.65;;;18.15;;
68168;SDS011;54981;50.206;15.978;2023-11-21T06:24:36;21.95;;;19.92;;
68168;SDS011;54981;50.206;15.978;2023-11-21T06:34:37;23.60;;;21.43;;
68168;SDS011;54981;50.206;15.978;2023-11-21T06:44:38;24.02;;;21.77;;
68168;SDS011;54981;50.206;15.978;2023-11-21T06:54:39;26.05;;;23.83;;
68168;SDS011;54981;50.206;15.978;2023-11-21T07:04:39;24.30;;;22.17;;
68168;SDS011;54981;50.206;15.978;2023-11-21T07:14:40;26.40;;;24.10;;
68168;SDS011;54981;50.206;15.978;2023-11-21T07:24:43;28.98;;;26.48;;
68168;SDS011;54981;50.206;15.978;2023-11-21T07:34:43;57.33;;;51.22;;
68168;SDS011;54981;50.206;15.978;2023-11-21T07:44:44;30.35;;;27.45;;
68168;SDS011;54981;50.206;15.978;2023-11-21T07:54:46;32.65;;;29.15;;
68168;SDS011;54981;50.206;15.978;2023-11-21T08:04:46;34.10;;;30.77;;
68168;SDS011;54981;50.206;15.978;2023-11-21T08:14:49;29.02;;;26.25;;
68168;SDS011;54981;50.206;15.978;2023-11-21T08:24:50;28.38;;;25.88;;
68168;SDS011;54981;50.206;15.978;2023-11-21T08:34:50;28.23;;;25.30;;
68168;SDS011;54981;50.206;15.978;2023-11-21T08:44:50;38.13;;;34.42;;
68168;SDS011;54981;50.206;15.978;2023-11-21T08:54:51;29.52;;;26.90;;
68168;SDS011;54981;50.206;15.978;2023-11-21T09:05:00;27.17;;;24.60;;
68168;SDS011;54981;50.206;15.978;2023-11-21T09:15:03;26.80;;;24.40;;
68168;SDS011;54981;50.206;15.978;2023-11-21T09:25:05;27.88;;;24.90;;
68168;SDS011;54981;50.206;15.978;2023-11-21T09:35:06;28.35;;;26.02;;
68168;SDS011;54981;50.206;15.978;2023-11-21T09:55:18;24.45;;;22.30;;
68168;SDS011;54981;50.206;15.978;2023-11-21T10:05:21;23.10;;;21.00;;
68168;SDS011;54981;50.206;15.978;2023-11-21T10:15:22;23.85;;;21.85;;
68168;SDS011;54981;50.206;15.978;2023-11-21T10:25:27;26.15;;;23.63;;
68168;SDS011;54981;50.206;15.978;2023-11-21T10:35:38;27.42;;;24.90;;
68168;SDS011;54981;50.206;15.978;2023-11-21T10:45:39;24.23;;;22.17;;
68168;SDS011;54981;50.206;15.978;2023-11-21T10:55:39;21.55;;;19.80;;
68168;SDS011;54981;50.206;15.978;2023-11-21T11:05:40;20.00;;;17.95;;
68168;SDS011;54981;50.206;15.978;2023-11-21T11:15:51;23.80;;;21.40;;
68168;SDS011;54981;50.206;15.978;2023-11-21T11:26:07;21.48;;;19.20;;
68168;SDS011;54981;50.206;15.978;2023-11-21T11:46:10;23.10;;;20.90;;
68168;SDS011;54981;50.206;15.978;2023-11-21T11:56:20;20.40;;;18.38;;
68168;SDS011;54981;50.206;15.978;2023-11-21T12:06:34;20.60;;;18.55;;
68168;SDS011;54981;50.206;15.978;2023-11-21T12:16:35;18.52;;;16.85;;
68168;SDS011;54981;50.206;15.978;2023-11-21T12:26:35;19.85;;;16.63;;
68168;SDS011;54981;50.206;15.978;2023-11-21T12:36:36;18.80;;;17.13;;
68168;SDS011;54981;50.206;15.978;2023-11-21T12:46:40;17.92;;;16.08;;
68168;SDS011;54981;50.206;15.978;2023-11-21T12:56:44;21.02;;;18.52;;
68168;SDS011;54981;50.206;15.978;2023-11-21T13:06:47;20.00;;;17.48;;
68168;SDS011;54981;50.206;15.978;2023-11-21T13:16:47;21.08;;;18.98;;
68168;SDS011;54981;50.206;15.978;2023-11-21T13:26:48;18.87;;;16.90;;
68168;SDS011;54981;50.206;15.978;2023-11-21T13:36:49;18.80;;;15.05;;
68168;SDS011;54981;50.206;15.978;2023-11-21T13:46:56;20.33;;;18.20;;
68168;SDS011;54981;50.206;15.978;2023-11-21T13:56:58;21.35;;;19.15;;
68168;SDS011;54981;50.206;15.978;2023-11-21T14:07:00;22.33;;;19.73;;
68168;SDS011;54981;50.206;15.978;2023-11-21T14:17:11;24.55;;;21.92;;
68168;SDS011;54981;50.206;15.978;2023-11-21T14:27:11;24.38;;;21.88;;
68168;SDS011;54981;50.206;15.978;2023-11-21T14:37:11;20.90;;;18.70;;
68168;SDS011;54981;50.206;15.978;2023-11-21T14:47:13;23.55;;;20.77;;
68168;SDS011;54981;50.206;15.978;2023-11-21T14:57:16;29.17;;;25.23;;
68168;SDS011;54981;50.206;15.978;2023-11-21T15:07:22;34.20;;;30.85;;
68168;SDS011;54981;50.206;15.978;2023-11-21T15:17:25;31.08;;;26.63;;
68168;SDS011;54981;50.206;15.978;2023-11-21T15:27:30;31.85;;;28.48;;
68168;SDS011;54981;50.206;15.978;2023-11-21T15:37:31;33.75;;;29.98;;
68168;SDS011;54981;50.206;15.978;2023-11-21T15:47:31;75.47;;;67.07;;
68168;SDS011;54981;50.206;15.978;2023-11-21T15:57:32;35.42;;;31.75;;
68168;SDS011;54981;50.206;15.978;2023-11-21T16:07:32;30.45;;;27.98;;
68168;SDS011;54981;50.206;15.978;2023-11-21T16:17:35;32.47;;;29.40;;
68168;SDS011;54981;50.206;15.978;2023-11-21T16:27:36;37.83;;;34.15;;
68168;SDS011;54981;50.206;15.978;2023-11-21T16:37:37;39.83;;;36.00;;
68168;SDS011;54981;50.206;15.978;2023-11-21T16:47:40;38.08;;;34.47;;
68168;SDS011;54981;50.206;15.978;2023-11-21T16:57:42;39.38;;;35.65;;
68168;SDS011;54981;50.206;15.978;2023-11-21T17:07:42;16.00;;;14.60;;
68168;SDS011;54981;50.206;15.978;2023-11-21T17:17:43;14.25;;;12.95;;
68168;SDS011;54981;50.206;15.978;2023-11-21T17:27:44;16.38;;;15.15;;
68168;SDS011;54981;50.206;15.978;2023-11-21T17:37:45;14.85;;;13.75;;
68168;SDS011;54981;50.206;15.978;2023-11-21T17:47:45;13.50;;;12.50;;
68168;SDS011;54981;50.206;15.978;2023-11-21T17:57:45;13.32;;;12.32;;
68168;SDS011;54981;50.206;15.978;2023-11-21T18:07:46;17.58;;;16.17;;
68168;SDS011;54981;50.206;15.978;2023-11-21T18:17:47;13.15;;;12.20;;
68168;SDS011;54981;50.206;15.978;2023-11-21T18:27:48;15.05;;;13.65;;
68168;SDS011;54981;50.206;15.978;2023-11-21T18:37:48;12.95;;;11.88;;
68168;SDS011;54981;50.206;15.978;2023-11-21T18:47:48;15.48;;;14.38;;
68168;SDS011;54981;50.206;15.978;2023-11-21T18:57:49;17.13;;;15.90;;
68168;SDS011;54981;50.206;15.978;2023-11-21T19:07:49;16.65;;;15.35;;
68168;SDS011;54981;50.206;15.978;2023-11-21T19:17:49;17.92;;;16.63;;
68168;SDS011;54981;50.206;15.978;2023-11-21T19:27:50;16.33;;;15.13;;
68168;SDS011;54981;50.206;15.978;2023-11-21T19:37:51;15.40;;;14.20;;
68168;SDS011;54981;50.206;15.978;2023-11-21T19:47:52;20.10;;;18.60;;
68168;SDS011;54981;50.206;15.978;2023-11-21T19:57:52;21.65;;;20.05;;
68168;SDS011;54981;50.206;15.978;2023-11-21T20:07:53;16.83;;;15.43;;
68168;SDS011;54981;50.206;15.978;2023-11-21T20:17:53;18.92;;;17.25;;
68168;SDS011;54981;50.206;15.978;2023-11-21T20:27:54;24.67;;;22.88;;
68168;SDS011;54981;50.206;15.978;2023-11-21T20:37:55;19.52;;;17.70;;
68168;SDS011;54981;50.206;15.978;2023-11-21T20:47:56;27.83;;;25.73;;
68168;SDS011;54981;50.206;15.978;2023-11-21T20:57:57;27.08;;;25.02;;
68168;SDS011;54981;50.206;15.978;2023-11-21T21:07:59;25.83;;;23.90;;
68168;SDS011;54981;50.206;15.978;2023-11-21T21:18:00;20.95;;;18.85;;
68168;SDS011;54981;50.206;15.978;2023-11-21T21:28:01;25.98;;;24.17;;
68168;SDS011;54981;50.206;15.978;2023-11-21T21:38:01;21.10;;;19.38;;
68168;SDS011;54981;50.206;15.978;2023-11-21T21:48:02;25.20;;;23.30;;
68168;SDS011;54981;50.206;15.978;2023-11-21T21:58:03;16.92;;;15.52;;
68168;SDS011;54981;50.206;15.978;2023-11-21T22:08:04;24.08;;;22.38;;
68168;SDS011;54981;50.206;15.978;2023-11-21T22:18:04;18.05;;;16.65;;
68168;SDS011;54981;50.206;15.978;2023-11-21T22:28:04;18.17;;;16.60;;
68168;SDS011;54981;50.206;15.978;2023-11-21T22:38:05;19.13;;;17.35;;
68168;SDS011;54981;50.206;15.978;2023-11-21T22:48:05;19.60;;;17.75;;
68168;SDS011;54981;50.206;15.978;2023-11-21T22:58:06;22.13;;;20.20;;
68168;SDS011;54981;50.206;15.978;2023-11-21T23:08:06;31.38;;;29.13;;
68168;SDS011;54981;50.206;15.978;2023-11-21T23:18:08;25.20;;;22.92;;
68168;SDS011;54981;50.206;15.978;2023-11-21T23:28:09;23.42;;;21.30;;
68168;SDS011;54981;50.206;15.978;2023-11-21T23:38:11;28.42;;;25.83;;
68168;SDS011;54981;50.206;15.978;2023-11-21T23:48:11;26.30;;;23.90;;
68168;SDS011;54981;50.206;15.978;2023-11-21T23:58:13;26.40;;;23.85;;
